Time;durP1;ratioP1;P1;durP2;ratioP2;P2;SDS_P1;SDS_P2;PMS_P1;PMS_P2;Temp;Humidity;BMP_temperature;BMP_pressure;BME280_temperature;BME280_humidity;BME280_pressure;Samples;Min_cycle;Max_cycle;Signal;HPM_P1;HPM_P2
2023/08/15 00:02:17;;;;;;;9.27;4.77;;;24.40;80.10;;;27.06;51.40;101174.47;5036152;28;20198;-62
2023/08/15 00:04:44;;;;;;;9.53;4.73;;;24.40;80.60;;;27.02;51.20;101171.53;5037364;28;20281;-61
2023/08/15 00:07:12;;;;;;;5.83;3.57;;;24.30;80.60;;;27.00;51.21;101167.47;5037446;28;20218;-62
2023/08/15 00:09:39;;;;;;;7.73;4.90;;;24.30;80.60;;;27.00;51.63;101172.88;5036803;28;20631;-63
2023/08/15 00:12:07;;;;;;;8.20;4.13;;;24.30;80.90;;;26.98;51.90;101169.66;5037259;28;20565;-61
2023/08/15 00:14:34;;;;;;;6.90;4.47;;;24.30;81.30;;;26.96;51.71;101169.13;5037037;28;20659;-61
2023/08/15 00:17:03;;;;;;;5.83;4.17;;;24.30;81.60;;;26.95;51.91;101156.66;5037205;28;20683;-62
2023/08/15 00:19:30;;;;;;;5.80;4.03;;;24.30;81.90;;;26.93;51.84;101156.94;5035990;28;20224;-65
2023/08/15 00:21:57;;;;;;;6.20;4.43;;;24.30;82.00;;;26.93;51.96;101161.53;5037287;28;20190;-62
2023/08/15 00:24:24;;;;;;;5.77;4.40;;;24.30;82.00;;;26.92;52.50;101157.19;5037168;28;20230;-63
2023/08/15 00:26:51;;;;;;;6.23;3.73;;;24.20;82.30;;;26.91;52.36;101159.09;5037269;28;20278;-61
2023/08/15 00:29:18;;;;;;;6.90;4.10;;;24.20;82.20;;;26.89;52.86;101160.47;5036645;28;20731;-62
2023/08/15 00:31:45;;;;;;;13.33;4.40;;;24.20;83.00;;;26.87;52.59;101158.03;5036573;28;20622;-62
2023/08/15 00:34:14;;;;;;;5.53;3.60;;;24.20;82.80;;;26.86;53.17;101157.22;5036576;28;20281;-64
2023/08/15 00:36:41;;;;;;;5.87;3.50;;;24.20;83.00;;;26.86;52.89;101149.09;5036363;28;20201;-60
2023/08/15 00:39:08;;;;;;;6.47;3.70;;;24.20;83.80;;;26.87;52.67;101147.22;5035864;28;20210;-62
2023/08/15 00:41:36;;;;;;;5.10;3.70;;;24.20;82.90;;;26.92;52.25;101143.69;5036704;28;20261;-61
2023/08/15 00:44:04;;;;;;;4.57;3.90;;;24.20;82.90;;;26.92;52.95;101132.88;5035021;28;20644;-63
2023/08/15 00:46:32;;;;;;;10.53;4.43;;;24.30;83.30;;;26.91;53.01;101128.56;5035445;28;20218;-61
2023/08/15 00:48:59;;;;;;;5.50;4.23;;;24.30;83.20;;;26.88;52.56;101131.81;5034720;28;20644;-61
2023/08/15 00:51:28;;;;;;;4.00;3.60;;;24.30;83.30;;;26.87;53.06;101131.00;5035588;28;20252;-60
2023/08/15 00:53:55;;;;;;;4.97;4.03;;;24.20;83.30;;;26.86;53.19;101135.59;5035559;28;20598;-60
2023/08/15 00:56:22;;;;;;;6.17;4.37;;;24.20;83.60;;;26.85;52.87;101142.09;5035179;28;20194;-62
2023/08/15 00:58:50;;;;;;;9.00;4.13;;;24.20;83.80;;;26.83;52.80;101141.56;5035149;28;20195;-62
2023/08/15 01:01:21;;;;;;;6.47;4.10;;;24.20;83.90;;;26.82;53.38;101145.34;5034594;28;20540;-62
2023/08/15 01:03:49;;;;;;;5.33;3.90;;;24.20;84.10;;;26.80;53.30;101152.91;5034884;28;20298;-62
2023/08/15 01:06:16;;;;;;;4.90;4.10;;;24.10;84.20;;;26.78;53.70;101152.38;5035111;28;20648;-61
2023/08/15 01:08:44;;;;;;;4.53;4.13;;;24.10;84.30;;;26.77;53.73;101158.84;5034859;28;20615;-60
2023/08/15 01:11:11;;;;;;;7.10;3.80;;;24.10;84.50;;;26.76;53.54;101159.94;5034654;28;20563;-60
2023/08/15 01:13:51;;;;;;;6.17;3.70;;;24.10;84.60;;;26.73;53.48;101156.94;5035227;28;20186;-61
2023/08/15 01:16:28;;;;;;;11.07;3.63;;;24.10;84.70;;;26.73;53.66;101163.16;5034934;28;20741;-59
2023/08/15 01:19:07;;;;;;;10.60;3.90;;;24.10;84.90;;;26.72;53.83;101166.91;5034641;28;20202;-60
2023/08/15 01:21:42;;;;;;;4.67;3.87;;;24.10;85.00;;;26.70;54.04;101158.28;5034687;28;20264;-60
2023/08/15 01:24:10;;;;;;;4.77;3.60;;;24.10;85.30;;;26.71;53.62;101159.09;5035048;28;20213;-62
2023/08/15 01:26:37;;;;;;;4.77;3.80;;;24.10;85.30;;;26.71;53.83;101157.22;5034866;28;20190;-61
2023/08/15 01:29:05;;;;;;;5.83;4.37;;;24.00;85.20;;;26.70;53.77;101158.28;5034526;28;20194;-59
2023/08/15 01:31:39;;;;;;;6.23;3.77;;;24.00;85.50;;;26.69;54.00;101145.03;5034964;28;20210;-61
2023/08/15 01:34:15;;;;;;;5.37;4.10;;;24.00;86.00;;;26.69;53.81;101145.88;5035073;28;20601;-58
2023/08/15 01:36:48;;;;;;;7.90;3.93;;;24.00;85.70;;;26.71;54.16;101154.50;5020462;28;20187;-61
2023/08/15 01:39:27;;;;;;;4.70;4.30;;;24.00;85.70;;;26.71;54.59;101157.22;5033344;28;20701;-61
2023/08/15 01:41:57;;;;;;;14.93;4.47;;;24.00;86.00;;;26.72;54.60;101150.69;4999172;28;1008043;-60
2023/08/15 01:44:27;;;;;;;8.53;4.30;;;24.00;86.10;;;26.71;54.44;101154.50;5035436;28;20663;-62
2023/08/15 01:46:55;;;;;;;7.97;3.93;;;24.00;86.20;;;26.72;54.55;101145.28;5035310;28;20194;-62
2023/08/15 01:49:22;;;;;;;7.13;4.37;;;24.00;86.00;;;26.73;54.66;101148.81;5034934;28;20219;-62
2023/08/15 01:51:50;;;;;;;7.07;4.00;;;24.00;86.00;;;26.72;54.27;101150.69;5035640;28;20273;-61
2023/08/15 01:54:19;;;;;;;6.50;4.03;;;24.00;86.00;;;26.75;53.77;101143.97;5026239;28;20199;-62
2023/08/15 01:56:46;;;;;;;7.40;4.60;;;24.00;86.00;;;26.75;54.12;101133.16;5035144;28;20195;-61
2023/08/15 01:59:13;;;;;;;5.67;4.17;;;24.00;86.00;;;26.74;53.99;101142.34;5035070;28;20289;-61
2023/08/15 02:01:40;;;;;;;4.60;4.17;;;24.00;86.00;;;26.75;54.03;101142.09;5035131;28;20551;-59
2023/08/15 02:04:07;;;;;;;6.80;4.27;;;24.00;85.90;;;26.77;53.97;101136.41;5035174;28;20222;-61
2023/08/15 02:06:34;;;;;;;7.90;4.70;;;24.00;85.90;;;26.77;54.12;101145.34;5035318;28;20281;-61
2023/08/15 02:09:01;;;;;;;7.13;4.33;;;24.00;86.10;;;26.74;53.67;101140.44;5034798;28;20269;-61
2023/08/15 02:11:30;;;;;;;6.27;4.37;;;24.00;86.00;;;26.71;54.15;101127.50;5034558;28;20610;-60
2023/08/15 02:13:58;;;;;;;4.10;3.73;;;24.00;86.00;;;26.69;53.99;101123.44;5033721;28;20197;-61
2023/08/15 02:16:25;;;;;;;5.10;3.70;;;24.00;86.00;;;26.68;53.79;101121.81;5035074;28;20285;-62
2023/08/15 02:18:52;;;;;;;5.90;4.50;;;24.00;86.00;;;26.68;54.05;101128.03;5034629;28;20191;-62
2023/08/15 02:21:19;;;;;;;5.10;3.80;;;24.00;86.00;;;26.67;53.70;101126.38;5034614;28;20221;-61
2023/08/15 02:23:46;;;;;;;5.70;4.57;;;23.90;86.00;;;26.65;54.29;101128.56;5034673;28;20764;-63
2023/08/15 02:26:13;;;;;;;9.30;5.33;;;23.90;86.10;;;26.65;53.90;101116.94;5034425;28;20244;-61
2023/08/15 02:28:41;;;;;;;6.43;5.10;;;23.90;86.10;;;26.64;54.10;101118.03;5034324;28;20194;-62
2023/08/15 02:31:10;;;;;;;10.20;5.97;;;23.90;86.20;;;26.58;54.97;101121.81;5034300;28;20250;-62
2023/08/15 02:33:37;;;;;;;7.07;6.03;;;23.90;86.70;;;26.53;54.43;101119.13;5034407;28;20244;-62
2023/08/15 02:36:06;;;;;;;5.83;4.50;;;23.80;86.50;;;26.49;54.34;101108.03;5034254;28;20277;-62
2023/08/15 02:38:34;;;;;;;5.53;5.00;;;23.80;86.50;;;26.48;54.93;101108.31;5033799;28;20222;-62
2023/08/15 02:41:01;;;;;;;8.63;5.93;;;23.80;86.50;;;26.44;54.95;101112.63;5033844;28;20306;-59
2023/08/15 02:43:28;;;;;;;5.90;5.23;;;23.80;87.20;;;26.38;55.03;101127.22;5034444;28;20300;-60
2023/08/15 02:45:57;;;;;;;9.20;6.40;;;23.70;87.10;;;26.32;55.66;101128.28;5034170;28;20216;-62
2023/08/15 02:48:24;;;;;;;8.67;5.90;;;23.70;87.50;;;26.23;55.50;101130.72;5034485;28;20190;-60
2023/08/15 02:50:51;;;;;;;9.87;7.00;;;23.60;87.80;;;26.15;55.70;101132.03;5033925;28;20331;-63
2023/08/15 02:53:18;;;;;;;6.63;5.90;;;23.60;88.10;;;26.07;56.25;101131.75;5034329;28;20266;-60
2023/08/15 02:55:49;;;;;;;7.07;6.30;;;23.50;88.40;;;25.99;56.03;101124.97;5033946;28;20206;-63
2023/08/15 02:58:16;;;;;;;7.37;6.20;;;23.50;88.80;;;25.97;56.92;101120.91;5033958;28;20265;-60
2023/08/15 03:00:43;;;;;;;6.73;5.60;;;23.40;88.70;;;25.99;56.80;101110.66;5033519;28;20214;-62
2023/08/15 03:03:12;;;;;;;5.53;4.90;;;23.40;88.80;;;26.03;56.67;101117.16;5033988;28;20195;-60
2023/08/15 03:05:39;;;;;;;7.07;4.67;;;23.30;88.80;;;26.08;56.41;101117.16;5033434;28;20197;-61
2023/08/15 03:08:06;;;;;;;6.47;5.03;;;23.40;88.80;;;26.11;55.68;101122.06;5023279;28;20290;-62
2023/08/15 03:10:35;;;;;;;6.43;4.77;;;23.40;88.80;;;26.14;56.28;101126.94;5013997;28;20269;-61
2023/08/15 03:13:03;;;;;;;9.30;5.70;;;23.40;88.70;;;26.17;55.59;101129.09;5014008;28;20282;-62
2023/08/15 03:15:30;;;;;;;12.87;5.63;;;23.40;88.80;;;26.12;56.36;101135.31;5023999;28;20194;-61
2023/08/15 03:17:57;;;;;;;10.30;5.80;;;23.40;88.90;;;26.05;56.80;101134.69;5033159;28;20738;-60
2023/08/15 03:20:26;;;;;;;6.97;5.70;;;23.40;89.20;;;26.00;56.08;101136.59;5033439;28;20930;-60
2023/08/15 03:22:53;;;;;;;7.70;6.90;;;23.30;89.10;;;25.94;57.17;101145.72;5032610;28;20198;-62
2023/08/15 03:25:20;;;;;;;8.77;6.80;;;23.30;89.50;;;25.88;56.89;101138.72;5033407;28;20221;-62
2023/08/15 03:27:47;;;;;;;5.90;5.30;;;23.30;89.90;;;25.83;56.74;101142.22;5033292;28;20229;-62
2023/08/15 03:30:14;;;;;;;9.70;6.60;;;23.20;89.70;;;25.84;56.98;101137.63;5032693;28;20210;-60
2023/08/15 03:32:41;;;;;;;6.97;5.70;;;23.20;90.00;;;25.82;57.83;101134.34;5033202;28;20258;-62
2023/08/15 03:35:08;;;;;;;10.23;5.50;;;23.10;90.10;;;25.83;57.64;101114.41;5029589;28;20213;-61
2023/08/15 03:37:37;;;;;;;8.17;5.77;;;23.10;90.10;;;25.85;57.39;101121.16;5022727;28;20218;-62
2023/08/15 03:40:05;;;;;;;5.70;4.90;;;23.10;90.10;;;25.90;56.90;101125.75;5033386;28;20221;-61
2023/08/15 03:42:32;;;;;;;8.53;7.63;;;23.20;90.10;;;25.92;57.57;101131.69;5033327;28;20289;-63
2023/08/15 03:44:59;;;;;;;8.17;6.07;;;23.10;90.30;;;25.92;57.67;101134.41;5033302;28;20340;-60
2023/08/15 03:47:26;;;;;;;8.93;5.83;;;23.20;90.30;;;25.90;57.59;101123.06;5033338;28;20616;-61
2023/08/15 03:49:53;;;;;;;9.43;6.50;;;23.20;90.40;;;25.87;57.29;101116.31;5032564;28;20244;-61
2023/08/15 03:52:21;;;;;;;9.70;5.50;;;23.20;90.50;;;25.88;57.54;101122.53;5033043;28;20199;-62
2023/08/15 03:54:49;;;;;;;7.20;6.23;;;23.20;90.40;;;25.90;57.92;101112.28;5032643;28;20269;-61
2023/08/15 03:57:16;;;;;;;7.90;5.70;;;23.20;90.80;;;25.89;57.18;101121.44;5032901;28;20217;-62
2023/08/15 03:59:43;;;;;;;6.77;5.47;;;23.20;90.40;;;25.90;57.16;101121.19;5032812;28;20211;-60
2023/08/15 04:02:10;;;;;;;8.33;6.07;;;23.20;90.40;;;25.94;57.41;101126.84;5033084;28;20291;-62
2023/08/15 04:04:37;;;;;;;8.83;6.70;;;23.20;90.40;;;25.92;57.47;101129.81;5022114;28;20655;-62
2023/08/15 04:07:04;;;;;;;7.57;6.33;;;23.20;90.50;;;25.90;57.95;101136.56;5033422;28;20253;-65
2023/08/15 04:09:31;;;;;;;7.13;6.43;;;23.20;91.00;;;25.88;58.15;101134.13;5033034;28;20214;-60
2023/08/15 04:11:59;;;;;;;11.40;5.80;;;23.20;90.70;;;25.89;58.29;101126.81;5033279;28;20218;-63
2023/08/15 04:14:27;;;;;;;11.43;6.80;;;23.20;90.70;;;25.88;57.79;101130.63;5032939;28;20189;-63
2023/08/15 04:16:54;;;;;;;7.37;6.67;;;23.20;90.80;;;25.85;58.46;101131.97;5033333;28;20229;-61
2023/08/15 04:19:21;;;;;;;7.97;6.00;;;23.20;91.20;;;25.83;58.57;101125.19;5032528;28;20285;-61
2023/08/15 04:21:48;;;;;;;9.37;6.27;;;23.20;90.80;;;25.82;58.57;101120.88;5033380;28;20190;-63
2023/08/15 04:24:15;;;;;;;6.37;5.40;;;23.10;90.80;;;25.84;58.46;101113.34;5033246;28;20213;-62
2023/08/15 04:26:42;;;;;;;8.80;6.30;;;23.10;90.80;;;25.87;57.86;101099.31;5032981;28;20198;-62
2023/08/15 04:29:11;;;;;;;10.57;7.43;;;23.10;90.90;;;25.90;58.21;101099.59;5033048;28;20685;-63
2023/08/15 04:31:38;;;;;;;7.03;5.87;;;23.10;90.90;;;25.91;58.27;101095.03;5033283;28;20278;-62
2023/08/15 04:34:06;;;;;;;6.93;6.10;;;23.20;90.80;;;25.92;58.53;101107.41;5032641;28;20654;-62
2023/08/15 04:36:33;;;;;;;7.57;6.57;;;23.20;90.90;;;25.91;58.33;101117.38;5033869;28;20214;-62
2023/08/15 04:39:01;;;;;;;7.80;7.00;;;23.20;90.90;;;25.89;57.93;101102.53;5036400;28;20269;-62
2023/08/15 04:41:28;;;;;;;8.00;7.30;;;23.20;90.90;;;25.86;58.72;101101.22;5036167;28;20191;-59
2023/08/15 04:43:55;;;;;;;7.63;6.03;;;23.20;91.00;;;25.85;58.81;101112.25;5036193;28;20288;-62
2023/08/15 04:46:23;;;;;;;9.23;7.77;;;23.20;91.10;;;25.84;58.28;101113.34;5036625;28;20213;-63
2023/08/15 04:48:50;;;;;;;9.17;6.40;;;23.10;91.10;;;25.82;58.89;101110.09;5035625;28;20260;-63
2023/08/15 04:51:17;;;;;;;9.40;7.00;;;23.10;91.10;;;25.82;58.32;101128.97;5036288;28;20635;-62
2023/08/15 04:53:44;;;;;;;7.73;6.60;;;23.20;91.30;;;25.82;58.46;101134.34;5035723;28;20191;-62
2023/08/15 04:56:12;;;;;;;9.33;6.67;;;23.10;91.30;;;25.79;59.27;101143.00;5036137;28;20194;-63
2023/08/15 04:58:39;;;;;;;9.47;6.00;;;23.10;91.40;;;25.76;58.70;101146.22;5035259;28;20667;-62
2023/08/15 05:01:06;;;;;;;8.20;6.23;;;23.10;91.40;;;25.75;59.52;101152.69;5021284;28;20232;-62
2023/08/15 05:03:35;;;;;;;8.47;6.87;;;23.10;91.50;;;25.76;59.36;101160.53;5033618;28;20686;-63
2023/08/15 05:06:02;;;;;;;6.60;6.00;;;23.10;91.60;;;25.78;59.00;101152.97;5035972;28;20218;-62
2023/08/15 05:08:29;;;;;;;7.53;6.13;;;23.10;91.70;;;25.79;58.93;101151.09;5035260;28;20198;-62
2023/08/15 05:10:56;;;;;;;7.37;6.67;;;23.10;91.70;;;25.79;58.95;101141.13;5035651;28;20309;-62
2023/08/15 05:13:24;;;;;;;6.97;6.27;;;23.10;91.70;;;25.81;58.86;101149.75;5035407;28;20198;-61
2023/08/15 05:15:51;;;;;;;6.67;6.03;;;23.10;91.70;;;25.85;58.81;101147.31;5035577;28;20222;-63
2023/08/15 05:18:20;;;;;;;7.83;6.73;;;23.10;91.60;;;25.90;58.97;101147.34;5035487;28;20197;-64
2023/08/15 05:20:49;;;;;;;6.93;5.97;;;23.10;91.70;;;25.95;59.47;101150.06;5035000;28;20305;-62
2023/08/15 05:23:16;;;;;;;7.00;6.20;;;23.20;91.70;;;26.03;58.88;101152.25;5035644;28;20570;-64
2023/08/15 05:25:43;;;;;;;7.53;5.63;;;23.20;91.70;;;26.10;58.34;101161.72;5035524;28;20305;-62
2023/08/15 05:28:11;;;;;;;7.07;6.33;;;23.30;91.70;;;26.16;58.20;101165.25;5035265;28;20186;-62
2023/08/15 05:30:38;;;;;;;7.10;6.40;;;23.30;91.70;;;26.18;58.86;101165.78;5033691;28;20214;-61
2023/08/15 05:33:05;;;;;;;9.17;6.43;;;23.40;91.60;;;26.14;58.63;101167.41;5035144;28;20190;-61
2023/08/15 05:35:33;;;;;;;9.13;6.70;;;23.40;91.60;;;26.10;58.82;101175.22;5027959;28;20187;-62
2023/08/15 05:38:02;;;;;;;9.50;6.90;;;23.40;91.60;;;26.08;58.55;101171.94;5027970;28;20198;-63
2023/08/15 05:40:30;;;;;;;7.00;6.33;;;23.40;91.70;;;26.04;59.33;101170.88;5034599;28;20625;-62
2023/08/15 05:42:57;;;;;;;12.43;6.70;;;23.40;91.70;;;26.02;59.60;101170.31;5034673;28;20206;-63
2023/08/15 05:45:24;;;;;;;7.63;6.83;;;23.40;91.80;;;26.03;59.54;101169.22;5034633;28;20236;-63
2023/08/15 05:47:51;;;;;;;8.10;7.10;;;23.40;91.80;;;26.06;59.14;101167.88;5033836;28;20191;-63
2023/08/15 05:50:18;;;;;;;7.80;6.63;;;23.40;91.80;;;26.08;59.20;101163.03;5034451;28;20276;-63
2023/08/15 05:52:45;;;;;;;10.57;7.10;;;23.40;91.90;;;26.10;58.92;101172.53;5033215;28;20186;-61
2023/08/15 05:55:14;;;;;;;7.23;6.47;;;23.40;91.90;;;26.16;59.13;101165.25;5034697;28;20183;-62
2023/08/15 05:57:41;;;;;;;6.13;5.53;;;23.40;91.80;;;26.22;58.58;101169.56;5034994;28;20203;-61
2023/08/15 06:00:10;;;;;;;6.87;6.17;;;23.50;91.80;;;26.31;58.44;101162.59;5034542;28;20219;-62
2023/08/15 06:02:39;;;;;;;8.53;5.67;;;23.50;91.80;;;26.41;58.72;101169.91;5034682;28;20198;-62
2023/08/15 06:05:07;;;;;;;8.30;5.73;;;23.50;91.70;;;26.48;58.26;101171.22;5034444;28;20573;-63
2023/08/15 06:07:34;;;;;;;7.27;6.53;;;23.60;91.70;;;26.52;58.20;101177.72;5034146;28;20197;-62
2023/08/15 06:10:02;;;;;;;9.53;6.23;;;23.60;91.60;;;26.53;57.79;101173.94;5034026;28;20671;-63
2023/08/15 06:12:31;;;;;;;6.43;5.83;;;23.70;91.60;;;26.54;58.14;101180.97;5034354;28;20187;-63
2023/08/15 06:14:58;;;;;;;7.30;6.60;;;23.70;91.50;;;26.53;57.94;101190.13;5033810;28;20930;-63
2023/08/15 06:17:25;;;;;;;6.97;6.37;;;23.70;91.50;;;26.50;58.32;101193.41;5034405;28;20202;-62
2023/08/15 06:19:53;;;;;;;7.60;6.80;;;23.70;91.40;;;26.45;58.55;101198.78;5033815;28;20241;-62
2023/08/15 06:22:20;;;;;;;8.03;6.30;;;23.70;91.50;;;26.41;58.44;101203.09;5033838;28;20197;-63
2023/08/15 06:24:47;;;;;;;8.03;6.93;;;23.70;91.60;;;26.38;58.61;101224.44;5033767;28;20237;-63
2023/08/15 06:27:14;;;;;;;10.63;7.10;;;23.70;91.70;;;26.35;58.76;101228.47;5033050;28;20191;-61
2023/08/15 06:29:42;;;;;;;7.43;6.83;;;23.70;91.80;;;26.33;59.05;101224.41;5033107;28;20648;-63
2023/08/15 06:32:25;;;;;;;13.43;7.40;;;23.70;91.80;;;26.25;59.04;101233.84;5033950;28;20265;-62
2023/08/15 06:34:52;;;;;;;12.63;7.20;;;23.60;91.90;;;26.23;59.34;101227.91;5034000;28;20336;-63
2023/08/15 06:37:19;;;;;;;15.70;7.50;;;23.60;91.90;;;26.23;59.56;101218.97;5033270;28;20224;-61
2023/08/15 06:39:46;;;;;;;27.60;7.63;;;23.60;92.00;;;26.19;59.94;101216.03;5033163;28;20206;-62
2023/08/15 06:42:14;;;;;;;10.47;6.90;;;23.60;92.10;;;26.18;60.32;101214.38;5033965;28;20205;-63
2023/08/15 06:44:43;;;;;;;9.50;7.07;;;23.60;92.20;;;26.16;60.46;101230.03;5033113;28;20206;-63
2023/08/15 06:47:10;;;;;;;10.00;6.43;;;23.60;92.30;;;26.13;60.82;101233.25;5033648;28;20195;-62
2023/08/15 06:49:37;;;;;;;8.73;6.47;;;23.60;92.50;;;26.15;60.52;101234.63;5033338;28;20214;-62
2023/08/15 06:52:07;;;;;;;7.53;5.87;;;23.60;92.50;;;26.20;60.22;101239.22;5032990;28;20195;-62
2023/08/15 06:54:34;;;;;;;7.60;5.70;;;23.60;92.40;;;26.23;60.50;101232.47;5034165;28;20665;-61
2023/08/15 06:57:01;;;;;;;6.67;5.47;;;23.60;92.40;;;26.26;60.12;101238.16;5033545;28;20278;-60
2023/08/15 06:59:28;;;;;;;8.93;6.10;;;23.60;92.40;;;26.28;59.92;101235.19;5032661;28;20373;-62
2023/08/15 07:01:56;;;;;;;8.77;6.43;;;23.60;92.40;;;26.27;59.92;101237.06;5033308;28;20229;-62
2023/08/15 07:04:23;;;;;;;7.67;6.30;;;23.60;92.50;;;26.26;60.90;101238.16;5033325;28;20191;-62
2023/08/15 07:06:52;;;;;;;7.90;6.13;;;23.60;92.60;;;26.28;60.72;101233.31;5032934;28;20288;-63
2023/08/15 07:09:19;;;;;;;6.63;5.30;;;23.70;92.70;;;26.28;60.35;101229.78;5032797;28;20193;-63
2023/08/15 07:11:46;;;;;;;6.30;5.70;;;23.70;92.70;;;26.32;60.37;101247.06;5033115;28;20225;-61
2023/08/15 07:14:13;;;;;;;8.23;6.17;;;23.70;92.80;;;26.34;60.71;101253.84;5033236;28;20195;-63
2023/08/15 07:16:40;;;;;;;5.50;5.00;;;23.70;92.80;;;26.39;60.56;101253.03;5033078;28;20191;-63
2023/08/15 07:19:09;;;;;;;7.30;5.93;;;23.80;92.80;;;26.44;60.55;101259.28;5032892;28;20906;-63
2023/08/15 07:21:36;;;;;;;6.60;5.73;;;23.80;92.90;;;26.46;60.61;101259.03;5032893;28;20290;-63
2023/08/15 07:24:04;;;;;;;6.23;5.63;;;23.80;92.90;;;26.47;60.55;101250.63;5033116;28;20277;-63
2023/08/15 07:26:32;;;;;;;6.00;5.50;;;23.80;93.00;;;26.49;61.24;101253.06;5033026;28;20310;-63
2023/08/15 07:28:59;;;;;;;7.17;6.00;;;23.80;93.00;;;26.48;60.95;101241.44;5033247;28;20281;-63
2023/08/15 07:31:27;;;;;;;10.00;7.27;;;23.80;93.10;;;26.46;61.49;101249.00;5032696;28;20202;-64
2023/08/15 07:33:54;;;;;;;7.17;6.23;;;23.80;93.30;;;26.49;60.95;101245.78;5032860;28;20206;-64
2023/08/15 07:36:23;;;;;;;7.40;5.80;;;23.80;93.20;;;26.53;61.51;101244.16;5032617;28;20269;-63
2023/08/15 07:38:50;;;;;;;6.90;6.23;;;23.80;93.30;;;26.56;61.57;101238.22;5032760;28;20607;-62
2023/08/15 07:41:16;;;;;;;7.70;6.63;;;23.80;93.40;;;26.61;61.55;101251.75;5032064;28;20226;-62
2023/08/15 07:43:44;;;;;;;7.37;5.80;;;23.90;93.50;;;26.65;61.44;101262.81;5028280;28;20218;-61
2023/08/15 07:46:12;;;;;;;6.10;5.43;;;23.90;93.50;;;26.70;61.31;101255.53;5031623;28;20690;-62
2023/08/15 07:48:39;;;;;;;6.40;5.80;;;24.00;93.50;;;26.72;61.26;101264.19;5030441;28;20598;-64
2023/08/15 07:51:06;;;;;;;7.90;7.10;;;24.00;93.50;;;26.80;60.66;101260.16;5033090;28;20218;-63
2023/08/15 07:53:35;;;;;;;7.77;6.40;;;24.00;93.50;;;26.96;60.39;101258.31;5031851;28;20203;-63
2023/08/15 07:56:02;;;;;;;6.77;5.67;;;24.00;93.50;;;27.08;60.46;101261.53;5026289;28;20273;-62
2023/08/15 07:58:32;;;;;;;6.93;6.00;;;24.10;93.50;;;27.18;60.45;101272.34;5023433;28;20198;-62
2023/08/15 08:00:59;;;;;;;7.17;5.97;;;24.20;93.40;;;27.27;60.01;101260.69;5027830;28;20234;-63
2023/08/15 08:03:26;;;;;;;7.03;6.17;;;24.30;93.30;;;27.32;59.54;101262.59;5025815;28;20290;-62
2023/08/15 08:05:54;;;;;;;7.90;5.60;;;24.30;93.10;;;27.36;59.51;101264.47;5025756;28;20280;-63
2023/08/15 08:08:21;;;;;;;7.43;5.30;;;24.40;93.00;;;27.40;59.45;101273.72;5029339;28;20559;-62
2023/08/15 08:10:49;;;;;;;5.60;5.10;;;24.50;93.00;;;27.56;59.57;101271.78;5032254;28;20234;-63
2023/08/15 08:13:17;;;;;;;5.60;5.10;;;24.60;93.10;;;28.06;59.24;101271.66;5035153;28;20550;-62
2023/08/15 08:15:46;;;;;;;9.50;5.30;;;24.70;93.30;;;28.69;57.51;101272.66;5022375;28;20277;-63
2023/08/15 08:18:13;;;;;;;6.53;4.87;;;25.00;92.90;;;29.36;55.59;101271.88;5015468;28;20619;-62
2023/08/15 08:20:40;;;;;;;7.33;4.67;;;25.40;92.50;;;29.99;54.66;101269.84;5014904;28;20246;-62
2023/08/15 08:23:08;;;;;;;6.60;5.33;;;25.80;92.00;;;30.38;53.27;101272.34;5024124;28;20200;-61
2023/08/15 08:25:35;;;;;;;6.67;5.97;;;26.20;91.10;;;30.77;50.74;101267.41;5033706;28;20322;-63
2023/08/15 08:28:05;;;;;;;5.60;5.10;;;26.50;89.80;;;31.32;50.60;101275.78;5015327;28;20242;-61
2023/08/15 08:30:34;;;;;;;5.70;4.60;;;26.90;89.70;;;31.57;49.84;101283.50;5015332;28;20557;-65
2023/08/15 08:33:01;;;;;;;5.17;4.70;;;27.30;88.50;;;32.28;49.11;101284.81;5023777;28;20199;-63
2023/08/15 08:35:28;;;;;;;5.70;5.20;;;27.70;88.20;;;32.46;48.42;101289.31;5035098;28;20217;-63
2023/08/15 08:37:55;;;;;;;7.20;6.53;;;28.10;86.00;;;32.35;47.12;101296.13;5035048;28;20269;-63
2023/08/15 08:40:22;;;;;;;6.80;6.20;;;28.30;83.70;;;31.83;47.26;101298.22;5035247;28;20250;-62
2023/08/15 08:42:50;;;;;;;7.60;6.80;;;28.30;82.10;;;31.51;48.42;101301.03;5034234;28;20679;-63
2023/08/15 08:45:23;;;;;;;8.03;7.33;;;28.30;82.00;;;31.25;48.15;101302.56;5032944;28;20238;-63
2023/08/15 08:47:51;;;;;;;9.13;8.20;;;28.20;82.00;;;30.97;49.39;101298.97;5035539;28;20350;-63
2023/08/15 08:50:18;;;;;;;11.60;7.50;;;28.00;82.40;;;30.94;49.25;101301.44;5034550;28;20234;-62
2023/08/15 08:52:49;;;;;;;9.07;7.90;;;27.90;83.10;;;30.85;49.95;101314.91;5034921;28;20269;-62
2023/08/15 08:55:17;;;;;;;8.30;7.60;;;27.80;83.10;;;30.61;49.82;101319.59;5035333;28;20175;-62
2023/08/15 08:57:49;;;;;;;7.43;6.83;;;27.70;82.90;;;30.37;50.21;101325.09;5032395;28;20234;-63
2023/08/15 09:00:24;;;;;;;9.47;8.47;;;27.60;83.10;;;30.19;50.61;101323.09;5017704;28;20219;-62
2023/08/15 09:02:52;;;;;;;9.97;9.07;;;27.40;82.70;;;30.01;49.97;101326.59;5019890;28;20186;-62
2023/08/15 09:05:20;;;;;;;9.37;8.40;;;27.20;82.60;;;29.86;50.71;101321.31;5035505;28;20218;-64
2023/08/15 09:07:49;;;;;;;9.70;8.83;;;27.10;83.20;;;29.76;50.63;101329.56;5035176;28;20241;-62
2023/08/15 09:10:16;;;;;;;10.33;9.30;;;26.90;83.60;;;29.66;51.02;101340.53;5034634;28;20276;-62
2023/08/15 09:12:46;;;;;;;11.47;10.47;;;26.90;83.80;;;29.51;50.99;101344.19;5034788;28;20493;-62
2023/08/15 09:15:14;;;;;;;11.83;10.73;;;26.70;83.50;;;29.35;51.14;101338.09;5028361;28;20303;-62
2023/08/15 09:17:43;;;;;;;10.40;9.43;;;26.60;83.60;;;29.27;51.15;101340.59;5015016;28;20633;-62
2023/08/15 09:20:14;;;;;;;11.60;10.27;;;26.50;84.00;;;29.26;51.27;101333.56;5015070;28;20261;-63
2023/08/15 09:22:46;;;;;;;10.53;9.40;;;26.40;84.30;;;29.30;51.43;101335.44;5030107;28;20245;-62
2023/08/15 09:25:15;;;;;;;12.83;10.83;;;26.40;84.80;;;29.34;51.20;101332.94;5034891;28;20178;-64
2023/08/15 09:27:43;;;;;;;11.33;10.43;;;26.40;84.80;;;29.33;51.04;101332.16;5035174;28;20691;-64
2023/08/15 09:30:13;;;;;;;11.97;10.80;;;26.30;84.60;;;29.28;51.40;101331.38;5034478;28;20206;-63
2023/08/15 09:32:44;;;;;;;13.27;12.00;;;26.30;84.50;;;29.26;50.85;101330.84;5034411;28;20264;-64
2023/08/15 09:35:14;;;;;;;12.57;11.50;;;26.30;84.70;;;29.29;50.98;101335.69;5030400;28;20544;-60
2023/08/15 09:37:42;;;;;;;17.37;12.40;;;26.30;84.80;;;29.40;50.95;101335.34;5024481;28;20191;-61
2023/08/15 09:40:14;;;;;;;13.40;12.13;;;26.30;85.00;;;29.50;51.31;101342.59;5034530;28;20210;-63
2023/08/15 09:42:41;;;;;;;14.97;13.70;;;26.40;85.00;;;29.50;51.08;101337.94;5020854;28;20203;-62
2023/08/15 09:45:10;;;;;;;14.70;13.40;;;26.40;84.60;;;29.69;51.12;101339.97;5034025;28;20199;-62
2023/08/15 09:47:39;;;;;;;13.67;12.47;;;26.50;85.00;;;30.31;50.19;101347.94;5034829;28;20201;-63
2023/08/15 09:50:10;;;;;;;12.70;11.70;;;26.60;84.90;;;30.83;47.34;101347.81;5034389;28;20220;-63
2023/08/15 09:52:56;;;;;;;12.40;11.20;;;26.80;82.40;;;31.51;45.71;101338.34;5034427;28;20663;-63
2023/08/15 09:55:23;;;;;;;13.80;12.33;;;27.10;81.20;;;32.63;43.34;101354.97;5034514;28;20182;-61
2023/08/15 09:57:51;;;;;;;11.83;10.70;;;27.60;79.30;;;33.66;41.70;101356.56;5034277;28;20277;-62
2023/08/15 10:00:18;;;;;;;11.13;10.03;;;28.10;78.30;;;34.30;39.56;101355.09;5033845;28;20257;-63
2023/08/15 10:02:55;;;;;;;11.43;10.27;;;28.70;75.10;;;34.46;39.19;101352.69;5034180;28;20191;-61
2023/08/15 10:05:31;;;;;;;9.85;8.95;;;29.20;73.10;;;34.55;38.68;101362.56;5034159;28;20191;-60
2023/08/15 10:07:59;;;;;;;9.10;8.25;;;29.60;72.10;;;34.54;38.84;101355.47;5033807;28;20637;-64
2023/08/15 10:10:29;;;;;;;8.57;7.70;;;29.80;71.50;;;34.46;39.17;101348.03;5033879;28;20211;-64
2023/08/15 10:12:58;;;;;;;7.80;7.03;;;30.00;70.30;;;34.60;38.24;101347.91;5034114;28;20195;-62
2023/08/15 10:15:28;;;;;;;7.47;5.80;;;30.20;68.60;;;35.64;37.30;101355.75;5034685;28;20198;-63